Time;durP1;ratioP1;P1;durP2;ratioP2;P2;SDS_P1;SDS_P2;PMS_P1;PMS_P2;Temp;Humidity;BMP_temperature;BMP_pressure;BME280_temperature;BME280_humidity;BME280_pressure;Samples;Min_cycle;Max_cycle;Signal;HPM_P1;HPM_P2
2023/07/25 00:00:45;;;;;;;;;;;;;;;13.85;86.34;100624.00;5025670;28;1300;-81
2023/07/25 00:03:11;;;;;;;;;;;;;;;13.79;86.71;100618.41;5024377;28;1241;-81
2023/07/25 00:05:36;;;;;;;;;;;;;;;13.70;86.56;100614.09;5013094;28;1223;-81
2023/07/25 00:08:02;;;;;;;;;;;;;;;13.64;86.66;100619.91;5025245;28;1282;-81
2023/07/25 00:10:27;;;;;;;;;;;;;;;13.53;86.91;100610.56;5029927;28;1248;-81
2023/07/25 00:12:54;;;;;;;;;;;;;;;13.46;87.28;100621.72;5031786;28;1182;-81
2023/07/25 00:15:21;;;;;;;;;;;;;;;13.41;87.27;100629.16;5029126;28;1965;-82
2023/07/25 00:17:46;;;;;;;;;;;;;;;13.40;87.50;100622.31;5031795;28;1246;-81
2023/07/25 00:20:11;;;;;;;;;;;;;;;13.40;87.46;100627.50;5008200;28;1689;-81
2023/07/25 00:22:37;;;;;;;;;;;;;;;13.36;87.59;100636.59;5030294;28;1047;-81
2023/07/25 00:25:02;;;;;;;;;;;;;;;13.31;87.75;100628.41;5033767;28;1077;-81
2023/07/25 00:27:27;;;;;;;;;;;;;;;13.25;88.09;100620.22;5027880;28;1338;-81
2023/07/25 00:29:52;;;;;;;;;;;;;;;13.24;88.10;100618.56;5014640;28;1307;-81
2023/07/25 00:32:17;;;;;;;;;;;;;;;13.22;88.50;100620.50;5028261;28;1299;-81
2023/07/25 00:34:43;;;;;;;;;;;;;;;13.23;88.71;100624.75;5018333;28;1893;-81
2023/07/25 00:37:08;;;;;;;;;;;;;;;13.25;88.72;100625.44;5034554;28;1172;-81
2023/07/25 00:39:33;;;;;;;;;;;;;;;13.25;88.64;100633.25;5029231;28;1108;-81
2023/07/25 00:41:58;;;;;;;;;;;;;;;13.26;88.67;100627.06;5010337;28;1182;-81
2023/07/25 00:44:23;;;;;;;;;;;;;;;13.31;88.43;100628.41;5027524;28;1233;-81
2023/07/25 00:46:49;;;;;;;;;;;;;;;13.26;88.83;100627.06;5027010;28;1148;-81
2023/07/25 00:49:15;;;;;;;;;;;;;;;13.23;88.77;100621.31;5016225;28;1334;-81
2023/07/25 00:51:40;;;;;;;;;;;;;;;13.21;89.15;100624.06;5031002;28;1189;-81
2023/07/25 00:54:06;;;;;;;;;;;;;;;13.21;89.13;100623.25;5032588;28;1168;-81
2023/07/25 00:56:31;;;;;;;;;;;;;;;13.20;89.19;100627.63;5028384;28;1953;-81
2023/07/25 00:58:56;;;;;;;;;;;;;;;13.18;89.01;100621.72;5012873;28;1459;-81
2023/07/25 01:01:22;;;;;;;;;;;;;;;13.13;89.26;100623.97;5030797;28;1134;-81
2023/07/25 01:03:48;;;;;;;;;;;;;;;13.10;89.17;100626.84;5025647;28;1189;-81
2023/07/25 01:06:14;;;;;;;;;;;;;;;13.07;89.24;100632.34;5027488;28;1149;-81
2023/07/25 01:08:55;;;;;;;;;;;;;;;13.03;89.23;100618.00;5010174;28;1289;-80
2023/07/25 01:11:21;;;;;;;;;;;;;;;12.99;89.52;100621.84;5024542;28;1036;-80
2023/07/25 01:13:47;;;;;;;;;;;;;;;12.98;89.63;100613.22;5007720;28;1174;-81
2023/07/25 01:16:14;;;;;;;;;;;;;;;13.00;89.57;100615.66;5026159;28;1906;-81
2023/07/25 01:18:40;;;;;;;;;;;;;;;12.96;89.87;100614.31;5026724;28;1278;-81
2023/07/25 01:21:05;;;;;;;;;;;;;;;12.95;89.90;100612.69;5021166;28;1091;-80
2023/07/25 01:23:31;;;;;;;;;;;;;;;12.91;89.77;100603.56;5010937;28;1100;-80
2023/07/25 01:25:56;;;;;;;;;;;;;;;12.90;89.88;100609.69;5026966;28;1214;-81
2023/07/25 01:28:22;;;;;;;;;;;;;;;12.90;89.78;100614.91;5039612;28;1092;-81
2023/07/25 01:30:47;;;;;;;;;;;;;;;12.93;89.67;100610.22;5040800;28;1071;-81
2023/07/25 01:33:12;;;;;;;;;;;;;;;12.93;90.03;100614.63;5032179;28;1110;-80
2023/07/25 01:35:37;;;;;;;;;;;;;;;12.90;90.32;100609.69;5036644;28;1933;-81
2023/07/25 01:38:02;;;;;;;;;;;;;;;12.89;90.08;100602.84;5029642;28;1099;-81
2023/07/25 01:40:28;;;;;;;;;;;;;;;12.86;90.38;100613.56;5028501;28;1248;-81
2023/07/25 01:42:53;;;;;;;;;;;;;;;12.82;90.01;100604.41;5011711;28;1283;-81
2023/07/25 01:45:18;;;;;;;;;;;;;;;12.82;90.41;100596.59;5034219;28;1254;-80
2023/07/25 01:47:43;;;;;;;;;;;;;;;12.81;90.09;100605.38;5021312;28;1086;-81
2023/07/25 01:50:09;;;;;;;;;;;;;;;12.79;90.35;100607.28;5024776;28;1212;-81
2023/07/25 01:52:34;;;;;;;;;;;;;;;12.75;90.26;100607.59;5027415;28;1260;-81
2023/07/25 01:54:59;;;;;;;;;;;;;;;12.72;90.45;100597.44;5027628;28;1952;-81
2023/07/25 01:57:43;;;;;;;;;;;;;;;12.69;90.59;100591.75;5027341;28;1099;-81
2023/07/25 02:00:08;;;;;;;;;;;;;;;12.69;90.77;100597.75;5030738;28;1210;-81
2023/07/25 02:02:33;;;;;;;;;;;;;;;12.71;91.01;100590.63;5025526;28;1362;-81
2023/07/25 02:04:59;;;;;;;;;;;;;;;12.76;90.61;100596.22;5011441;28;1217;-81
2023/07/25 02:07:24;;;;;;;;;;;;;;;12.80;90.58;100588.13;5010508;28;1466;-81
2023/07/25 02:09:49;;;;;;;;;;;;;;;12.82;90.94;100587.00;5010626;28;1276;-81
2023/07/25 02:12:14;;;;;;;;;;;;;;;12.84;90.96;100589.47;5024354;28;1531;-82
2023/07/25 02:14:39;;;;;;;;;;;;;;;12.84;90.77;100584.25;5023520;28;1083;-81
2023/07/25 02:17:05;;;;;;;;;;;;;;;12.83;90.70;100577.41;5023156;28;1910;-81
2023/07/25 02:19:30;;;;;;;;;;;;;;;12.81;90.88;100584.56;5022968;28;1373;-81
2023/07/25 02:21:55;;;;;;;;;;;;;;;12.79;91.04;100581.25;5008045;28;1299;-81
2023/07/25 02:24:20;;;;;;;;;;;;;;;12.71;91.04;100580.22;5014271;28;1245;-81
2023/07/25 02:26:46;;;;;;;;;;;;;;;12.66;90.88;100582.41;5035838;28;1217;-81
2023/07/25 02:29:11;;;;;;;;;;;;;;;12.63;91.23;100581.91;5009908;28;1543;-81
2023/07/25 02:31:36;;;;;;;;;;;;;;;12.63;91.29;100582.72;5034287;28;1063;-81
2023/07/25 02:34:01;;;;;;;;;;;;;;;12.56;90.90;100580.81;5026094;28;1494;-81
2023/07/25 02:36:26;;;;;;;;;;;;;;;12.49;90.88;100578.81;5011958;28;1898;-81
2023/07/25 02:38:52;;;;;;;;;;;;;;;12.44;91.59;100585.38;5027539;28;1387;-81
2023/07/25 02:41:17;;;;;;;;;;;;;;;12.42;91.69;100576.94;5024828;28;1317;-80
2023/07/25 02:43:42;;;;;;;;;;;;;;;12.38;91.48;100580.75;5029241;28;1156;-81
2023/07/25 02:46:07;;;;;;;;;;;;;;;12.39;91.67;100579.81;5026460;28;1228;-81
2023/07/25 02:48:33;;;;;;;;;;;;;;;12.38;91.47;100580.75;5028200;28;1184;-81
2023/07/25 02:50:58;;;;;;;;;;;;;;;12.41;91.87;100583.09;5036007;28;1186;-81
2023/07/25 02:53:24;;;;;;;;;;;;;;;12.44;92.19;100575.84;5029083;28;1530;-81
2023/07/25 02:55:49;;;;;;;;;;;;;;;12.45;91.69;100581.84;5026792;28;1963;-81
2023/07/25 02:58:14;;;;;;;;;;;;;;;12.44;91.87;100582.78;5009436;28;1476;-81
2023/07/25 03:00:40;;;;;;;;;;;;;;;12.47;92.38;100577.31;5011313;28;1167;-81
2023/07/25 03:03:05;;;;;;;;;;;;;;;12.46;91.85;100580.88;5013934;28;1176;-81
2023/07/25 03:05:30;;;;;;;;;;;;;;;12.43;91.61;100586.34;5026309;28;1278;-81
2023/07/25 03:07:56;;;;;;;;;;;;;;;12.41;91.64;100577.91;5008424;28;1459;-81
2023/07/25 03:10:22;;;;;;;;;;;;;;;12.43;91.93;100581.16;5028415;28;1294;-81
2023/07/25 03:12:47;;;;;;;;;;;;;;;12.42;92.15;100579.53;5026911;28;1201;-81
2023/07/25 03:15:12;;;;;;;;;;;;;;;12.42;91.74;100582.94;5024278;28;1902;-81
2023/07/25 03:17:37;;;;;;;;;;;;;;;12.41;91.70;100583.09;5027341;28;1043;-81
2023/07/25 03:20:03;;;;;;;;;;;;;;;12.38;91.79;100578.16;5007250;28;1322;-81
2023/07/25 03:22:28;;;;;;;;;;;;;;;12.36;92.30;100580.09;5007095;28;1400;-81
2023/07/25 03:24:53;;;;;;;;;;;;;;;12.36;91.94;100585.31;5030104;28;1051;-81
2023/07/25 03:27:18;;;;;;;;;;;;;;;12.39;92.96;100580.66;5031009;28;1019;-81
2023/07/25 03:29:44;;;;;;;;;;;;;;;12.41;92.34;100583.91;5023920;28;1345;-81
2023/07/25 03:32:09;;;;;;;;;;;;;;;12.45;92.51;100592.25;5026812;28;1480;-81
2023/07/25 03:34:34;;;;;;;;;;;;;;;12.45;92.49;100584.47;5027087;28;1219;-81
2023/07/25 03:36:59;;;;;;;;;;;;;;;12.45;92.71;100590.47;5011693;28;1894;-81
2023/07/25 03:39:24;;;;;;;;;;;;;;;12.45;92.80;100584.47;5030420;28;1535;-81
2023/07/25 03:41:50;;;;;;;;;;;;;;;12.45;92.49;100574.06;5026648;28;1204;-81
2023/07/25 03:44:19;;;;;;;;;;;;;;;12.46;92.61;100580.88;5038042;28;1052;-81
2023/07/25 03:46:44;;;;;;;;;;;;;;;12.44;92.74;100577.59;5034479;28;1346;-81
2023/07/25 03:49:10;;;;;;;;;;;;;;;12.41;92.95;100572.69;5039140;28;1460;-81
2023/07/25 03:51:36;;;;;;;;;;;;;;;12.37;92.93;100572.16;5029307;28;1182;-81
2023/07/25 03:54:02;;;;;;;;;;;;;;;12.34;93.06;100576.84;5010816;28;1201;-81
2023/07/25 03:56:27;;;;;;;;;;;;;;;12.30;93.30;100572.88;5030216;28;1886;-81
2023/07/25 03:58:53;;;;;;;;;;;;;;;12.29;93.28;100573.84;5031712;28;1182;-81
2023/07/25 04:01:18;;;;;;;;;;;;;;;12.28;93.44;100578.22;5013609;28;1278;-81
2023/07/25 04:03:43;;;;;;;;;;;;;;;12.29;94.04;100579.84;5010466;28;1365;-81
2023/07/25 04:06:08;;;;;;;;;;;;;;;12.29;93.69;100572.06;5030289;28;1112;-81
2023/07/25 04:08:33;;;;;;;;;;;;;;;12.30;93.84;100570.28;5028684;28;1106;-81
2023/07/25 04:10:59;;;;;;;;;;;;;;;12.30;93.62;100578.88;5010519;28;1226;-81
2023/07/25 04:13:24;;;;;;;;;;;;;;;12.28;93.27;100580.00;5029359;28;1087;-81
2023/07/25 04:15:49;;;;;;;;;;;;;;;12.27;93.88;100571.34;5028210;28;1886;-81
2023/07/25 04:18:14;;;;;;;;;;;;;;;12.25;93.74;100572.47;5027223;28;1157;-81
2023/07/25 04:20:39;;;;;;;;;;;;;;;12.23;94.13;100565.63;5030912;28;1322;-81
2023/07/25 04:23:04;;;;;;;;;;;;;;;12.26;94.08;100563.69;5025012;28;1464;-81
2023/07/25 04:25:30;;;;;;;;;;;;;;;12.28;93.73;100567.81;5028210;28;1146;-81
2023/07/25 04:27:55;;;;;;;;;;;;;;;12.33;94.29;100564.75;5030396;28;1182;-81
2023/07/25 04:30:20;;;;;;;;;;;;;;;12.36;93.78;100569.69;5010643;28;1493;-81
2023/07/25 04:32:45;;;;;;;;;;;;;;;12.35;93.29;100568.06;5030608;28;1054;-80
2023/07/25 04:35:11;;;;;;;;;;;;;;;12.35;93.47;100563.69;5033153;28;1957;-81
2023/07/25 04:37:36;;;;;;;;;;;;;;;12.37;93.85;100572.16;5023505;28;1181;-79
2023/07/25 04:40:01;;;;;;;;;;;;;;;12.39;93.85;100572.03;5029042;28;1337;-80
2023/07/25 04:42:26;;;;;;;;;;;;;;;12.40;93.93;100566.66;5036330;28;1248;-81
2023/07/25 04:44:51;;;;;;;;;;;;;;;12.44;93.50;100572.38;5007718;28;1196;-81
2023/07/25 04:47:16;;;;;;;;;;;;;;;12.47;94.07;100572.94;5019834;28;1257;-81
2023/07/25 04:49:42;;;;;;;;;;;;;;;12.47;93.85;100566.91;5024579;28;1476;-81
2023/07/25 04:52:07;;;;;;;;;;;;;;;12.45;93.57;100574.06;5031791;28;1181;-81
2023/07/25 04:54:32;;;;;;;;;;;;;;;12.44;93.86;100572.38;5028840;28;1154;-80
2023/07/25 04:56:57;;;;;;;;;;;;;;;12.43;93.68;100578.56;5012590;28;1898;-81
2023/07/25 04:59:23;;;;;;;;;;;;;;;12.43;94.19;100592.38;5029847;28;1261;-81
2023/07/25 05:01:48;;;;;;;;;;;;;;;12.46;93.87;100588.69;5007869;28;1304;-81
2023/07/25 05:04:13;;;;;;;;;;;;;;;12.46;93.73;100596.50;5027448;28;1188;-81
2023/07/25 05:06:38;;;;;;;;;;;;;;;12.44;93.72;100593.19;5010916;28;1378;-81
2023/07/25 05:09:03;;;;;;;;;;;;;;;12.45;93.81;100594.88;5027426;28;1209;-81
2023/07/25 05:11:29;;;;;;;;;;;;;;;12.42;94.21;100585.53;5012804;28;1298;-81
2023/07/25 05:13:54;;;;;;;;;;;;;;;12.43;93.87;100591.56;5006342;28;1264;-81
2023/07/25 05:16:19;;;;;;;;;;;;;;;12.45;94.02;100600.06;5029099;28;1945;-81
2023/07/25 05:18:45;;;;;;;;;;;;;;;12.44;94.32;100593.19;5002910;28;1222;-81
2023/07/25 05:21:10;;;;;;;;;;;;;;;12.46;94.00;100596.50;5011209;28;1300;-81
2023/07/25 05:23:35;;;;;;;;;;;;;;;12.48;93.82;100594.56;5043114;28;1305;-81
2023/07/25 05:26:00;;;;;;;;;;;;;;;12.53;94.00;100600.16;5047524;28;1220;-81
2023/07/25 05:28:26;;;;;;;;;;;;;;;12.57;93.94;100598.91;5014628;28;1460;-81
2023/07/25 05:30:51;;;;;;;;;;;;;;;12.61;94.15;100600.25;5027694;28;1436;-81
2023/07/25 05:33:16;;;;;;;;;;;;;;;12.68;94.59;100603.94;5026033;28;1300;-81
2023/07/25 05:35:41;;;;;;;;;;;;;;;12.74;94.05;100595.53;5026046;28;1941;-81
2023/07/25 05:38:07;;;;;;;;;;;;;;;12.80;94.01;100598.53;5033962;28;1327;-81
2023/07/25 05:40:33;;;;;;;;;;;;;;;12.83;94.04;100603.44;5034094;28;1318;-81
2023/07/25 05:42:59;;;;;;;;;;;;;;;12.85;94.06;100601.53;5013714;28;1268;-81
2023/07/25 05:45:24;;;;;;;;;;;;;;;12.94;93.97;100601.44;5009723;28;1293;-81
2023/07/25 05:47:49;;;;;;;;;;;;;;;12.95;94.37;100602.28;5031342;28;1145;-81
2023/07/25 05:50:14;;;;;;;;;;;;;;;12.92;94.01;100602.56;5011702;28;1350;-81
2023/07/25 05:52:39;;;;;;;;;;;;;;;12.90;93.85;100609.69;5033607;28;1156;-80
2023/07/25 05:55:05;;;;;;;;;;;;;;;12.87;94.52;100603.00;5014221;28;1977;-81
2023/07/25 05:57:30;;;;;;;;;;;;;;;12.89;93.88;100614.09;5030971;28;1220;-81
2023/07/25 05:59:55;;;;;;;;;;;;;;;12.92;93.53;100613.00;5036124;28;1580;-81
2023/07/25 06:02:21;;;;;;;;;;;;;;;12.91;93.69;100613.97;5003679;28;1589;-81
2023/07/25 06:04:46;;;;;;;;;;;;;;;12.93;94.58;100619.81;5020158;28;1344;-81
2023/07/25 06:07:14;;;;;;;;;;;;;;;12.92;94.64;100613.00;5026554;28;1062;-81
2023/07/25 06:09:40;;;;;;;;;;;;;;;12.91;94.68;100617.38;5023004;28;1188;-81
2023/07/25 06:12:06;;;;;;;;;;;;;;;12.95;94.86;100617.88;5000716;28;1237;-80
2023/07/25 06:14:31;;;;;;;;;;;;;;;13.01;94.80;100612.09;5019465;28;1163;-80
2023/07/25 06:16:57;;;;;;;;;;;;;;;13.06;95.21;100614.28;5006599;28;1911;-80
2023/07/25 06:19:22;;;;;;;;;;;;;;;13.10;95.98;100618.22;5023098;28;1167;-80
2023/07/25 06:21:47;;;;;;;;;;;;;;;13.11;96.31;100623.28;5011883;28;1242;-80
2023/07/25 06:24:13;;;;;;;;;;;;;;;13.14;96.29;100616.97;5008124;28;1501;-80
2023/07/25 06:26:38;;;;;;;;;;;;;;;13.16;95.88;100615.84;5027966;28;1183;-79
2023/07/25 06:29:03;;;;;;;;;;;;;;;13.21;95.87;100607.63;5022232;28;1666;-80
2023/07/25 06:31:29;;;;;;;;;;;;;;;13.25;96.03;100606.38;5014955;28;1126;-80
2023/07/25 06:33:54;;;;;;;;;;;;;;;13.29;95.18;100605.91;5009502;28;1130;-80
2023/07/25 06:36:19;;;;;;;;;;;;;;;13.33;95.59;100601.25;5025427;28;1894;-81
2023/07/25 06:38:44;;;;;;;;;;;;;;;13.36;94.88;100610.53;5025148;28;1199;-80
2023/07/25 06:41:09;;;;;;;;;;;;;;;13.41;94.76;100613.50;5029208;28;1105;-81
2023/07/25 06:43:35;;;;;;;;;;;;;;;13.47;94.05;100618.13;5014389;28;1711;-80
2023/07/25 06:46:00;;;;;;;;;;;;;;;13.50;93.46;100613.44;5030373;28;1421;-80
2023/07/25 06:48:25;;;;;;;;;;;;;;;13.58;93.75;100614.47;5029250;28;1093;-81
2023/07/25 06:50:50;;;;;;;;;;;;;;;13.68;93.46;100610.84;5029267;28;1335;-80
2023/07/25 06:53:15;;;;;;;;;;;;;;;13.79;93.41;100612.38;5026926;28;1412;-81
2023/07/25 06:55:41;;;;;;;;;;;;;;;13.89;92.00;100614.91;5031895;28;1894;-80
2023/07/25 06:58:06;;;;;;;;;;;;;;;13.96;90.33;100613.34;5011237;28;1436;-80
2023/07/25 07:00:33;;;;;;;;;;;;;;;14.04;90.11;100621.19;5022963;28;1185;-80
2023/07/25 07:02:58;;;;;;;;;;;;;;;14.14;90.95;100619.31;5026140;28;1508;-81
2023/07/25 07:05:24;;;;;;;;;;;;;;;14.22;90.42;100619.38;5023648;28;1133;-80
2023/07/25 07:07:49;;;;;;;;;;;;;;;14.33;90.08;100616.50;5030235;28;1166;-81
2023/07/25 07:10:14;;;;;;;;;;;;;;;14.45;89.80;100619.69;5024968;28;1440;-80
2023/07/25 07:12:45;;;;;;;;;;;;;;;14.57;88.40;100615.03;5034981;28;1346;-81
2023/07/25 07:15:11;;;;;;;;;;;;;;;14.69;89.27;100616.38;5024537;28;1902;-80
2023/07/25 07:17:36;;;;;;;;;;;;;;;14.76;86.77;100620.00;5026786;28;1233;-81
2023/07/25 07:20:01;;;;;;;;;;;;;;;14.79;86.89;100622.28;5027135;28;1147;-81
2023/07/25 07:22:26;;;;;;;;;;;;;;;14.82;86.30;100637.66;5011599;28;1204;-80
2023/07/25 07:25:01;;;;;;;;;;;;;;;14.84;85.25;100630.47;5030095;28;1133;-81
2023/07/25 07:27:26;;;;;;;;;;;;;;;14.86;86.51;100623.31;5027434;28;1372;-81
2023/07/25 07:29:52;;;;;;;;;;;;;;;14.90;84.20;100638.66;5031267;28;1192;-81
2023/07/25 07:32:17;;;;;;;;;;;;;;;14.90;85.56;100633.41;5032614;28;1181;-81
2023/07/25 07:34:42;;;;;;;;;;;;;;;14.88;83.54;100631.78;5028735;28;1358;-81
2023/07/25 07:37:08;;;;;;;;;;;;;;;14.90;82.21;100638.66;5042950;28;1945;-82
2023/07/25 07:39:33;;;;;;;;;;;;;;;14.87;84.65;100635.38;5014624;28;1262;-82
2023/07/25 07:41:58;;;;;;;;;;;;;;;14.88;83.55;100646.66;5026864;28;1167;-82
2023/07/25 07:44:23;;;;;;;;;;;;;;;14.92;83.70;100642.75;5033534;28;1570;-81
2023/07/25 07:46:48;;;;;;;;;;;;;;;15.01;84.20;100646.19;5030370;28;1427;-82
2023/07/25 07:49:14;;;;;;;;;;;;;;;15.07;83.42;100640.34;5030610;28;1022;-81
2023/07/25 07:51:39;;;;;;;;;;;;;;;15.16;82.50;100644.63;5022147;28;1309;-81
2023/07/25 07:54:04;;;;;;;;;;;;;;;15.20;84.19;100651.16;5009174;28;1263;-81
2023/07/25 07:56:29;;;;;;;;;;;;;;;15.25;84.12;100654.09;5030756;28;1894;-82
2023/07/25 07:58:54;;;;;;;;;;;;;;;15.30;84.30;100656.22;5023275;28;1123;-82
2023/07/25 08:01:23;;;;;;;;;;;;;;;15.27;82.02;100660.00;5028245;28;1492;-82
2023/07/25 08:03:49;;;;;;;;;;;;;;;15.24;80.95;100662.91;5022812;28;1420;-81
2023/07/25 08:06:14;;;;;;;;;;;;;;;15.24;80.81;100670.75;5014652;28;1242;-81
2023/07/25 08:08:40;;;;;;;;;;;;;;;15.25;81.26;100669.78;5009653;28;1547;-82
2023/07/25 08:11:05;;;;;;;;;;;;;;;15.27;81.51;100667.84;5010466;28;1286;-82
2023/07/25 08:13:30;;;;;;;;;;;;;;;15.29;79.36;100665.88;5026883;28;1026;-82
2023/07/25 08:15:55;;;;;;;;;;;;;;;15.35;81.76;100670.47;5011767;28;1906;-82
2023/07/25 08:18:20;;;;;;;;;;;;;;;15.43;82.04;100676.72;5021749;28;1199;-82
2023/07/25 08:20:46;;;;;;;;;;;;;;;15.46;80.16;100676.38;5026998;28;1314;-82
2023/07/25 08:23:11;;;;;;;;;;;;;;;15.50;78.84;100677.69;5022727;28;1390;-81
2023/07/25 08:25:39;;;;;;;;;;;;;;;15.50;79.40;100682.91;5026888;28;1091;-82
2023/07/25 08:28:05;;;;;;;;;;;;;;;15.52;79.33;100686.19;5025432;28;1195;-82
2023/07/25 08:30:30;;;;;;;;;;;;;;;15.57;79.11;100694.34;5041734;28;1180;-82
2023/07/25 08:32:56;;;;;;;;;;;;;;;15.66;80.41;100688.22;5026366;28;1404;-82
2023/07/25 08:35:21;;;;;;;;;;;;;;;15.72;79.73;100690.19;5023734;28;1973;-83
2023/07/25 08:37:46;;;;;;;;;;;;;;;15.77;74.91;100689.66;5025909;28;1138;-82
2023/07/25 08:40:11;;;;;;;;;;;;;;;15.75;74.12;100689.03;5029822;28;1135;-82
2023/07/25 08:42:37;;;;;;;;;;;;;;;15.80;75.36;100695.41;5027170;28;1333;-81
2023/07/25 08:45:06;;;;;;;;;;;;;;;15.89;77.25;100697.06;5029910;28;1092;-82
2023/07/25 08:47:32;;;;;;;;;;;;;;;15.97;75.31;100705.88;5008855;28;1365;-81
2023/07/25 08:49:58;;;;;;;;;;;;;;;16.04;74.13;100705.06;5028659;28;1213;-82
2023/07/25 08:52:26;;;;;;;;;;;;;;;16.15;73.42;100706.53;5029440;28;1506;-82
2023/07/25 08:54:51;;;;;;;;;;;;;;;16.13;71.81;100700.66;5030355;28;1307;-81
2023/07/25 08:57:18;;;;;;;;;;;;;;;16.13;73.29;100698.03;5030065;28;1955;-82
2023/07/25 08:59:45;;;;;;;;;;;;;;;16.19;74.62;100700.81;5033220;28;1292;-82
2023/07/25 09:02:10;;;;;;;;;;;;;;;16.24;73.99;100702.94;5029666;28;1437;-81
2023/07/25 09:04:35;;;;;;;;;;;;;;;16.21;73.14;100703.25;5014241;28;1197;-82
2023/07/25 09:07:01;;;;;;;;;;;;;;;16.25;73.72;100699.34;5024805;28;1288;-82
2023/07/25 09:09:26;;;;;;;;;;;;;;;16.33;73.59;100707.16;5011960;28;1198;-81
2023/07/25 09:11:51;;;;;;;;;;;;;;;16.45;71.43;100705.00;5032588;28;1400;-81
2023/07/25 09:14:16;;;;;;;;;;;;;;;16.49;70.44;100700.28;5026046;28;1223;-80
2023/07/25 09:16:42;;;;;;;;;;;;;;;16.44;71.74;100706.81;5027212;28;1957;-81
2023/07/25 09:19:07;;;;;;;;;;;;;;;16.43;69.56;100707.00;5028174;28;1476;-81
2023/07/25 09:21:33;;;;;;;;;;;;;;;16.40;67.22;100708.16;5023580;28;1480;-81
2023/07/25 09:23:59;;;;;;;;;;;;;;;16.36;70.78;100706.84;5013062;28;1458;-80
2023/07/25 09:26:25;;;;;;;;;;;;;;;16.36;70.02;100717.31;5029894;28;1085;-82
2023/07/25 09:28:55;;;;;;;;;;;;;;;16.49;69.47;100705.50;5031457;28;1012;-82
2023/07/25 09:31:21;;;;;;;;;;;;;;;16.52;70.19;100710.44;5013889;28;1166;-81
2023/07/25 09:33:50;;;;;;;;;;;;;;;16.62;68.74;100711.03;5010803;28;1479;-81
2023/07/25 09:36:16;;;;;;;;;;;;;;;16.66;66.65;100717.59;5022294;28;1890;-81
2023/07/25 09:38:49;;;;;;;;;;;;;;;16.60;66.52;100723.50;5023270;28;1150;-80
2023/07/25 09:41:14;;;;;;;;;;;;;;;16.58;67.98;100715.00;5025081;28;1236;-82
2023/07/25 09:43:39;;;;;;;;;;;;;;;16.52;65.84;100715.66;5026777;28;1201;-81
2023/07/25 09:46:05;;;;;;;;;;;;;;;16.45;64.95;100723.34;5020440;28;1165;-82
2023/07/25 09:48:31;;;;;;;;;;;;;;;16.43;66.64;100728.75;5025082;28;1126;-82
2023/07/25 09:50:56;;;;;;;;;;;;;;;16.42;66.38;100734.97;5024447;28;1347;-81
2023/07/25 09:53:22;;;;;;;;;;;;;;;16.37;64.13;100729.41;5029071;28;1242;-82
2023/07/25 09:55:47;;;;;;;;;;;;;;;16.34;65.66;100729.72;5028843;28;1914;-81
2023/07/25 09:58:12;;;;;;;;;;;;;;;16.30;63.32;100738.09;5029325;28;1572;-82
2023/07/25 10:00:38;;;;;;;;;;;;;;;16.33;64.68;100728.09;5009657;28;1135;-81
2023/07/25 10:03:03;;;;;;;;;;;;;;;16.52;65.57;100720.91;5029659;28;1337;-82
2023/07/25 10:05:29;;;;;;;;;;;;;;;16.76;64.01;100728.72;5024601;28;1161;-81
2023/07/25 10:07:55;;;;;;;;;;;;;;;16.99;63.54;100713.91;5019876;28;1357;-82
2023/07/25 10:10:21;;;;;;;;;;;;;;;17.16;65.25;100727.78;5004008;28;1455;-82
2023/07/25 10:12:46;;;;;;;;;;;;;;;17.28;64.17;100728.22;5007130;28;1666;-82
2023/07/25 10:15:12;;;;;;;;;;;;;;;17.30;61.98;100723.59;5023740;28;1898;-83
2023/07/25 10:17:37;;;;;;;;;;;;;;;17.37;58.55;100727.16;5026652;28;1123;-82
2023/07/25 10:20:05;;;;;;;;;;;;;;;17.45;61.26;100729.75;5013642;28;1253;-82
2023/07/25 10:22:42;;;;;;;;;;;;;;;17.51;62.73;100729.06;5035550;28;1220;-81
2023/07/25 10:25:08;;;;;;;;;;;;;;;17.68;60.61;100723.72;5031932;28;1145;-82
2023/07/25 10:27:34;;;;;;;;;;;;;;;17.68;59.50;100731.59;5030583;28;1530;-80
2023/07/25 10:30:02;;;;;;;;;;;;;;;17.72;59.64;100735.53;5026891;28;1179;-82
2023/07/25 10:32:43;;;;;;;;;;;;;;;17.68;56.70;100736.84;5023849;28;1000;-81
2023/07/25 10:35:09;;;;;;;;;;;;;;;17.76;57.52;100731.56;5023207;28;1902;-81
2023/07/25 10:37:40;;;;;;;;;;;;;;;17.87;58.01;100733.78;5008182;28;1578;-81
2023/07/25 10:40:22;;;;;;;;;;;;;;;17.87;58.24;100733.78;5009933;28;1210;-82
2023/07/25 10:42:47;;;;;;;;;;;;;;;17.97;58.29;100734.38;5020342;28;1284;-80
2023/07/25 10:45:20;;;;;;;;;;;;;;;18.14;58.07;100734.25;5013697;28;1172;-82
2023/07/25 10:47:45;;;;;;;;;;;;;;;18.26;58.25;100732.84;5027223;28;1053;-81
2023/07/25 10:50:10;;;;;;;;;;;;;;;18.29;56.70;100738.56;5032079;28;1124;-82
2023/07/25 10:52:45;;;;;;;;;;;;;;;18.35;56.12;100731.78;5031082;28;1266;-82
2023/07/25 10:55:14;;;;;;;;;;;;;;;18.39;57.17;100738.28;5031155;28;1941;-81
2023/07/25 10:57:39;;;;;;;;;;;;;;;18.37;54.12;100739.47;5018353;28;1347;-82
2023/07/25 11:00:08;;;;;;;;;;;;;;;18.32;53.49;100732.13;5034758;28;1153;-82
2023/07/25 11:02:41;;;;;;;;;;;;;;;18.36;54.72;100725.53;5009086;28;1325;-81
2023/07/25 11:05:12;;;;;;;;;;;;;;;18.47;53.41;100735.59;5041981;28;1404;-81
2023/07/25 11:07:48;;;;;;;;;;;;;;;18.51;49.23;100742.09;5027551;28;1211;-81
2023/07/25 11:10:20;;;;;;;;;;;;;;;18.44;52.83;100730.69;5011563;28;1238;-81
2023/07/25 11:12:54;;;;;;;;;;;;;;;18.54;51.29;100733.06;5032213;28;1068;-81
2023/07/25 11:15:19;;;;;;;;;;;;;;;18.47;51.89;100727.72;5030852;28;1957;-81
2023/07/25 11:17:44;;;;;;;;;;;;;;;18.48;52.33;100726.72;5037276;28;1101;-82
2023/07/25 11:20:13;;;;;;;;;;;;;;;18.55;52.30;100732.88;5026821;28;1141;-81
2023/07/25 11:22:39;;;;;;;;;;;;;;;18.72;52.95;100722.25;5036210;28;1065;-80
2023/07/25 11:25:07;;;;;;;;;;;;;;;18.86;52.80;100728.47;5026215;28;1423;-81
2023/07/25 11:27:33;;;;;;;;;;;;;;;18.97;50.48;100731.47;5031431;28;1444;-82
2023/07/25 11:30:18;;;;;;;;;;;;;;;18.98;50.42;100735.75;5031635;28;1086;-84
2023/07/25 11:32:53;;;;;;;;;;;;;;;18.69;50.98;100738.34;5033447;28;1332;-83
2023/07/25 11:35:19;;;;;;;;;;;;;;;18.54;52.10;100736.50;5028137;28;1886;-81
2023/07/25 11:37:45;;;;;;;;;;;;;;;18.30;51.56;100734.94;5030517;28;1505;-81
2023/07/25 11:40:11;;;;;;;;;;;;;;;18.36;52.62;100733.41;5029422;28;1083;-80
2023/07/25 11:42:38;;;;;;;;;;;;;;;18.54;53.15;100731.25;5033749;28;1087;-82
2023/07/25 11:45:04;;;;;;;;;;;;;;;18.69;52.48;100733.09;5027148;28;1304;-82
2023/07/25 11:47:29;;;;;;;;;;;;;;;18.76;50.56;100729.59;5011965;28;1603;-82
2023/07/25 11:49:55;;;;;;;;;;;;;;;18.86;50.78;100729.28;5028794;28;1103;-82
2023/07/25 11:52:20;;;;;;;;;;;;;;;19.01;49.95;100726.69;5029915;28;1507;-82
2023/07/25 11:54:45;;;;;;;;;;;;;;;19.15;48.56;100725.00;5047068;28;1547;-82
2023/07/25 11:57:11;;;;;;;;;;;;;;;19.25;51.39;100723.72;5011393;28;1883;-82
2023/07/25 11:59:40;;;;;;;;;;;;;;;19.32;49.95;100727.25;5012913;28;1188;-80
2023/07/25 12:02:05;;;;;;;;;;;;;;;19.25;49.69;100728.19;5034289;28;1284;-81
2023/07/25 12:04:31;;;;;;;;;;;;;;;19.05;47.93;100744.53;5034841;28;1142;-82
2023/07/25 12:06:58;;;;;;;;;;;;;;;19.03;49.47;100729.94;5013595;28;1275;-80
2023/07/25 12:09:48;;;;;;;;;;;;;;;19.03;49.23;100738.63;5026079;28;1122;-81
2023/07/25 12:12:13;;;;;;;;;;;;;;;19.19;50.52;100728.91;5025127;28;1439;-82
2023/07/25 12:14:38;;;;;;;;;;;;;;;19.37;49.23;100737.22;5024356;28;1316;-81
2023/07/25 12:17:03;;;;;;;;;;;;;;;19.52;49.71;100735.38;5028997;28;1977;-82
2023/07/25 12:19:31;;;;;;;;;;;;;;;19.67;49.19;100731.91;5030839;28;1240;-81
2023/07/25 12:22:03;;;;;;;;;;;;;;;19.72;48.18;100729.53;5029100;28;1084;-81
2023/07/25 12:24:38;;;;;;;;;;;;;;;19.44;48.29;100747.81;5027555;28;1134;-80
2023/07/25 12:27:04;;;;;;;;;;;;;;;19.25;49.60;100743.97;5028672;28;1149;-80
2023/07/25 12:29:29;;;;;;;;;;;;;;;19.24;49.86;100750.22;5029404;28;1150;-81
2023/07/25 12:31:54;;;;;;;;;;;;;;;19.26;49.92;100751.66;5026158;28;1119;-81
2023/07/25 12:34:20;;;;;;;;;;;;;;;19.35;50.00;100744.50;5027483;28;1130;-81
2023/07/25 12:36:46;;;;;;;;;;;;;;;19.44;47.65;100748.66;5025319;28;1899;-81
2023/07/25 12:39:11;;;;;;;;;;;;;;;19.45;48.14;100744.22;5026779;28;1482;-81
2023/07/25 12:41:37;;;;;;;;;;;;;;;19.36;48.69;100743.50;5044275;28;1330;-81